Time;durP1;ratioP1;P1;durP2;ratioP2;P2;SDS_P1;SDS_P2;PMS_P1;PMS_P2;Temp;Humidity;BMP_temperature;BMP_pressure;BME280_temperature;BME280_humidity;BME280_pressure;Samples;Min_cycle;Max_cycle;Signal;HPM_P1;HPM_P2
2022/04/17 00:03:42;;;;;;;7.43;4.17;;;;;1.20;97582.00;;;;8252844;28;20699;-73
2022/04/17 00:07:48;;;;;;;4.47;3.80;;;;;1.20;97580.00;;;;8253032;28;20236;-73
2022/04/17 00:11:51;;;;;;;5.30;4.20;;;;;1.20;97579.00;;;;8253064;28;20822;-74
2022/04/17 00:15:54;;;;;;;8.50;4.10;;;;;1.20;97569.00;;;;8252648;28;20230;-74
2022/04/17 00:19:57;;;;;;;4.60;4.00;;;;;1.20;97568.00;;;;8256451;28;20234;-73
2022/04/17 00:24:02;;;;;;;5.43;4.07;;;;;1.10;97572.00;;;;8253270;28;20269;-74
2022/04/17 00:28:06;;;;;;;6.03;4.23;;;;;1.10;97560.00;;;;8252944;28;20584;-74
2022/04/17 00:32:09;;;;;;;7.03;4.63;;;;;1.00;97551.00;;;;8252673;28;20228;-74
2022/04/17 00:36:12;;;;;;;10.90;4.33;;;;;1.00;97550.00;;;;8252953;28;20246;-75
2022/04/17 00:40:17;;;;;;;5.13;4.07;;;;;1.00;97562.00;;;;8252551;28;20258;-74
2022/04/17 00:44:21;;;;;;;6.50;4.07;;;;;0.90;97553.00;;;;8253442;28;20230;-73
2022/04/17 00:48:24;;;;;;;10.10;4.43;;;;;0.80;97550.00;;;;8251589;28;20274;-74
2022/04/17 00:52:27;;;;;;;6.53;4.20;;;;;0.70;97541.00;;;;8244371;28;20363;-76
2022/04/17 00:56:32;;;;;;;7.63;4.70;;;;;0.70;97533.00;;;;8252007;28;20321;-75
2022/04/17 01:00:35;;;;;;;5.33;4.60;;;;;0.60;97526.00;;;;8251168;28;20743;-74
2022/04/17 01:04:39;;;;;;;5.90;4.40;;;;;0.50;97519.00;;;;8252301;28;20240;-74
2022/04/17 01:08:43;;;;;;;4.57;4.17;;;;;0.40;97522.00;;;;8251275;28;20313;-75
2022/04/17 01:12:48;;;;;;;5.20;4.40;;;;;0.30;97514.00;;;;8252748;28;20243;-79
2022/04/17 01:16:51;;;;;;;6.50;4.17;;;;;0.40;97512.00;;;;8251370;28;20569;-78
2022/04/17 01:20:54;;;;;;;8.67;5.30;;;;;0.40;97504.00;;;;8252692;28;20672;-79
2022/04/17 01:29:19;;;;;;;7.37;4.70;;;;;0.30;97514.00;;;;8250172;28;20342;-76
2022/04/17 01:33:23;;;;;;;7.23;4.77;;;;;0.20;97519.00;;;;8251305;28;20239;-77
2022/04/17 01:37:26;;;;;;;5.80;4.47;;;;;0.10;97500.00;;;;8250442;28;20240;-75
2022/04/17 01:41:30;;;;;;;6.50;4.83;;;;;0.10;97491.00;;;;8243597;28;20329;-77
2022/04/17 01:45:34;;;;;;;9.83;4.83;;;;;0.10;97485.00;;;;8250652;28;20231;-77
2022/04/17 01:49:37;;;;;;;7.67;4.67;;;;;0.00;97478.00;;;;8249485;28;20233;-77
2022/04/17 01:53:41;;;;;;;9.50;5.10;;;;;0.00;97483.00;;;;8249544;28;20317;-77
2022/04/17 01:57:45;;;;;;;8.67;4.90;;;;;-0.10;97481.00;;;;8251664;28;20240;-77
2022/04/17 02:01:49;;;;;;;6.80;5.03;;;;;-0.10;97478.00;;;;8250617;28;20254;-77
2022/04/17 02:05:52;;;;;;;11.93;4.77;;;;;-0.10;97473.00;;;;8256692;28;20289;-77
2022/04/17 02:09:55;;;;;;;6.13;4.73;;;;;-0.10;97463.00;;;;8248453;28;20703;-77
2022/04/17 02:14:00;;;;;;;6.13;4.37;;;;;0.00;97465.00;;;;8250741;28;20322;-75
2022/04/17 02:18:03;;;;;;;5.33;4.33;;;;;0.00;97466.00;;;;8249808;28;20238;-75
2022/04/17 02:22:07;;;;;;;9.73;4.57;;;;;0.00;97459.00;;;;8251435;28;20251;-75
2022/04/17 02:26:10;;;;;;;6.63;4.67;;;;;-0.10;97458.00;;;;8250685;28;20232;-75
2022/04/17 02:30:15;;;;;;;7.37;4.80;;;;;-0.10;97448.00;;;;8250776;28;20223;-76
2022/04/17 02:34:18;;;;;;;6.57;4.90;;;;;-0.10;97446.00;;;;8249131;28;20326;-76
2022/04/17 02:38:21;;;;;;;6.00;4.53;;;;;-0.10;97447.00;;;;8250077;28;20227;-76
2022/04/17 02:42:24;;;;;;;5.90;4.07;;;;;0.00;97440.00;;;;8250504;28;20269;-76
2022/04/17 02:50:50;;;;;;;7.67;4.90;;;;;-0.10;97449.00;;;;8247131;28;20218;-77
2022/04/17 02:54:54;;;;;;;7.77;4.67;;;;;-0.10;97438.00;;;;8250202;28;20250;-76
2022/04/17 02:58:57;;;;;;;7.03;4.30;;;;;-0.10;97443.00;;;;8246012;28;20254;-76
2022/04/17 03:07:23;;;;;;;9.20;5.33;;;;;0.00;97438.00;;;;8277536;28;20874;-78
2022/04/17 03:11:26;;;;;;;8.13;4.60;;;;;0.00;97431.00;;;;8272932;28;20735;-76
2022/04/17 03:15:29;;;;;;;6.60;4.50;;;;;0.10;97430.00;;;;8282170;28;20709;-76
2022/04/17 03:19:34;;;;;;;6.10;4.37;;;;;0.00;97433.00;;;;8273325;28;20234;-76
2022/04/17 03:23:37;;;;;;;10.50;4.87;;;;;0.00;97430.00;;;;8284019;28;20237;-75
2022/04/17 03:27:43;;;;;;;6.77;4.47;;;;;-0.10;97428.00;;;;8281426;28;20740;-74
2022/04/17 03:31:46;;;;;;;6.00;4.77;;;;;-0.10;97421.00;;;;8276321;28;20253;-74
2022/04/17 03:35:51;;;;;;;8.03;5.03;;;;;-0.20;97419.00;;;;8282703;28;20226;-75
2022/04/17 03:39:54;;;;;;;5.80;4.70;;;;;-0.20;97413.00;;;;8280039;28;20756;-74
2022/04/17 03:43:57;;;;;;;15.87;5.10;;;;;-0.20;97421.00;;;;8279705;28;20230;-75
2022/04/17 03:48:01;;;;;;;6.63;4.43;;;;;-0.20;97423.00;;;;8278306;28;20321;-77
2022/04/17 03:52:07;;;;;;;12.57;5.03;;;;;-0.30;97414.00;;;;8275998;28;20256;-75
2022/04/17 03:56:10;;;;;;;7.27;4.27;;;;;-0.30;97418.00;;;;8282702;28;20727;-77
2022/04/17 04:00:15;;;;;;;6.33;4.60;;;;;-0.20;97411.00;;;;8269473;28;20230;-74
2022/04/17 04:04:18;;;;;;;6.83;4.90;;;;;-0.20;97409.00;;;;8281176;28;20369;-75
2022/04/17 04:08:23;;;;;;;5.63;4.40;;;;;-0.20;97404.00;;;;8285204;28;20233;-73
2022/04/17 04:12:26;;;;;;;5.87;4.20;;;;;-0.30;97398.00;;;;8284875;28;20232;-72
2022/04/17 04:16:31;;;;;;;6.37;4.30;;;;;-0.40;97397.00;;;;8277002;28;20326;-75
2022/04/17 04:20:34;;;;;;;11.00;4.50;;;;;-0.40;97399.00;;;;8284827;28;20229;-74
2022/04/17 04:24:39;;;;;;;4.63;4.13;;;;;-0.50;97401.00;;;;8285485;28;20229;-74
2022/04/17 04:28:43;;;;;;;6.77;4.70;;;;;-0.50;97390.00;;;;8284360;28;20822;-73
2022/04/17 04:32:53;;;;;;;8.47;4.33;;;;;-0.50;97395.00;;;;8281515;28;20738;-74
2022/04/17 04:36:56;;;;;;;6.20;4.27;;;;;-0.50;97402.00;;;;8284179;28;20232;-74
2022/04/17 04:41:01;;;;;;;6.20;4.47;;;;;-0.40;97413.00;;;;8279534;28;20241;-74
2022/04/17 04:49:31;;;;;;;9.40;4.90;;;;;-0.40;97404.00;;;;8283353;28;20991;-75
2022/04/17 04:53:35;;;;;;;9.20;5.00;;;;;-0.30;97411.00;;;;8283415;28;20313;-73
2022/04/17 04:57:39;;;;;;;7.27;4.57;;;;;-0.20;97409.00;;;;8278811;28;21013;-75
2022/04/17 05:01:42;;;;;;;14.07;5.03;;;;;-0.20;97410.00;;;;8279450;28;20241;-73
2022/04/17 05:05:50;;;;;;;5.60;4.70;;;;;0.00;97416.00;;;;8283427;28;20230;-75
2022/04/17 05:09:54;;;;;;;7.30;5.30;;;;;0.10;97417.00;;;;8282634;28;20720;-74
2022/04/17 05:13:58;;;;;;;8.57;5.40;;;;;0.30;97420.00;;;;8283196;28;20670;-76
2022/04/17 05:18:01;;;;;;;8.73;5.57;;;;;0.60;97428.00;;;;8279774;28;20244;-77
2022/04/17 05:22:10;;;;;;;7.77;5.10;;;;;0.80;97419.00;;;;8281196;28;21008;-76
2022/04/17 05:26:13;;;;;;;7.60;5.30;;;;;1.00;97415.00;;;;8305417;28;20238;-78
2022/04/17 05:30:18;;;;;;;9.17;6.27;;;;;1.20;97422.00;;;;8306167;28;20309;-77
2022/04/17 05:34:21;;;;;;;7.23;5.30;;;;;1.50;97410.00;;;;8310254;28;20221;-78
2022/04/17 05:38:24;;;;;;;7.07;5.30;;;;;1.90;97414.00;;;;8315401;28;20233;-76
2022/04/17 05:42:28;;;;;;;6.53;4.90;;;;;2.30;97409.00;;;;8308754;28;20238;-76
2022/04/17 05:46:35;;;;;;;4.33;3.90;;;;;2.70;97418.00;;;;8311075;28;20232;-75
2022/04/17 05:50:40;;;;;;;6.53;4.17;;;;;3.00;97424.00;;;;8300873;28;20221;-74
2022/04/17 05:54:44;;;;;;;6.00;3.90;;;;;3.20;97411.00;;;;8312570;28;20308;-76
2022/04/17 05:58:47;;;;;;;3.87;3.30;;;;;3.60;97409.00;;;;8313055;28;20240;-74
2022/04/17 06:02:51;;;;;;;3.10;2.80;;;;;3.80;97408.00;;;;8294254;28;20237;-76
2022/04/17 06:06:55;;;;;;;7.33;4.10;;;;;4.20;97412.00;;;;8240216;28;20261;-76
2022/04/17 06:10:59;;;;;;;5.53;3.80;;;;;4.40;97413.00;;;;8250281;28;20233;-75
2022/04/17 06:15:02;;;;;;;3.77;3.43;;;;;4.60;97413.00;;;;8250144;28;20234;-76
2022/04/17 06:19:09;;;;;;;6.87;3.77;;;;;4.80;97435.00;;;;8242578;28;20722;-74
2022/04/17 06:23:15;;;;;;;3.53;3.23;;;;;5.00;97428.00;;;;8221285;28;20696;-75
2022/04/17 06:27:18;;;;;;;6.60;3.90;;;;;5.10;97431.00;;;;8249929;28;20317;-76
2022/04/17 06:31:21;;;;;;;5.60;3.57;;;;;5.20;97432.00;;;;8249762;28;20250;-75
2022/04/17 06:35:26;;;;;;;6.10;4.03;;;;;5.40;97434.00;;;;8252711;28;20312;-75
2022/04/17 06:39:29;;;;;;;6.00;3.50;;;;;5.60;97442.00;;;;8255346;28;20251;-76
2022/04/17 06:43:32;;;;;;;4.13;3.70;;;;;5.80;97438.00;;;;8255372;28;20330;-77
2022/04/17 06:47:37;;;;;;;7.17;4.07;;;;;6.00;97437.00;;;;8252429;28;20282;-78
2022/04/17 06:51:44;;;;;;;8.33;3.87;;;;;6.20;97426.00;;;;8240914;28;20248;-77
2022/04/17 06:55:52;;;;;;;5.97;3.17;;;;;6.30;97431.00;;;;8239360;28;20327;-77
2022/04/17 06:59:56;;;;;;;5.57;3.30;;;;;6.60;97427.00;;;;8241867;28;20680;-76
2022/04/17 07:03:59;;;;;;;4.23;3.43;;;;;6.90;97432.00;;;;8254013;28;20637;-79
2022/04/17 07:08:06;;;;;;;4.63;3.60;;;;;7.10;97432.00;;;;8235159;28;20254;-77
2022/04/17 07:12:09;;;;;;;6.37;3.67;;;;;7.10;97435.00;;;;8247771;28;20578;-73
2022/04/17 07:16:12;;;;;;;5.30;3.30;;;;;7.40;97429.00;;;;8254845;28;20321;-74
2022/04/17 07:20:17;;;;;;;7.07;3.67;;;;;7.80;97429.00;;;;8255244;28;20284;-75
2022/04/17 07:24:24;;;;;;;4.47;3.23;;;;;8.40;97437.00;;;;8254529;28;20244;-74
2022/04/17 07:28:27;;;;;;;7.57;3.20;;;;;9.00;97422.00;;;;8255078;28;20251;-74
2022/04/17 07:32:30;;;;;;;4.57;3.03;;;;;10.10;97429.00;;;;8256279;28;20240;-73
2022/04/17 07:36:33;;;;;;;3.93;3.57;;;;;11.10;97421.00;;;;8255967;28;21016;-73
2022/04/17 07:40:38;;;;;;;5.93;3.10;;;;;11.80;97424.00;;;;8255599;28;20241;-73
2022/04/17 07:44:41;;;;;;;4.13;3.17;;;;;12.20;97429.00;;;;8241606;28;20710;-73
2022/04/17 07:48:47;;;;;;;4.97;3.00;;;;;12.60;97420.00;;;;8254689;28;20312;-73
2022/04/17 07:52:51;;;;;;;5.60;3.70;;;;;13.10;97425.00;;;;8255179;28;20226;-74
2022/04/17 07:56:56;;;;;;;4.40;3.20;;;;;13.40;97418.00;;;;8254506;28;20305;-73
2022/04/17 08:00:59;;;;;;;5.63;3.07;;;;;13.70;97415.00;;;;8235312;28;20223;-74
2022/04/17 08:05:02;;;;;;;4.47;2.90;;;;;14.30;97407.00;;;;8248309;28;20231;-74
2022/04/17 08:09:05;;;;;;;6.30;3.23;;;;;14.90;97406.00;;;;8246898;28;20573;-75
2022/04/17 08:13:10;;;;;;;4.10;2.87;;;;;15.60;97403.00;;;;8254795;28;20226;-74
2022/04/17 08:17:13;;;;;;;3.53;2.75;;;;;15.70;97412.00;;;;8254849;28;20231;-73
2022/04/17 08:21:17;;;;;;;8.13;3.00;;;;;15.30;97410.00;;;;8254140;28;20309;-74
2022/04/17 08:25:20;;;;;;;5.13;3.22;;;;;14.70;97398.00;;;;8254230;28;20318;-73
2022/04/17 08:29:25;;;;;;;4.70;2.60;;;;;14.70;97389.00;;;;8254836;28;20226;-73
2022/04/17 08:33:28;;;;;;;3.50;2.93;;;;;14.90;97389.00;;;;8253771;28;20238;-73
2022/04/17 08:37:31;;;;;;;3.53;2.60;;;;;15.80;97388.00;;;;8253744;28;20321;-73
2022/04/17 08:41:34;;;;;;;3.58;2.20;;;;;16.70;97389.00;;;;8253678;28;20242;-73
2022/04/17 08:45:39;;;;;;;2.50;2.30;;;;;17.10;97379.00;;;;8228620;28;20308;-73
2022/04/17 08:49:43;;;;;;;2.78;2.42;;;;;17.10;97384.00;;;;8253115;28;20235;-73
2022/04/17 08:53:48;;;;;;;5.00;2.47;;;;;17.00;97380.00;;;;8253105;28;20332;-72
2022/04/17 08:57:51;;;;;;;3.45;2.33;;;;;17.00;97373.00;;;;8253601;28;20223;-72
2022/04/17 09:01:56;;;;;;;5.90;2.47;;;;;17.10;97368.00;;;;8229419;28;20239;-71
2022/04/17 09:05:59;;;;;;;2.45;2.13;;;;;17.50;97365.00;;;;8253594;28;20857;-72
2022/04/17 09:10:03;;;;;;;2.60;2.40;;;;;18.10;97367.00;;;;8252355;28;20234;-73
2022/04/17 09:14:07;;;;;;;2.70;2.50;;;;;17.30;97359.00;;;;8252858;28;20256;-72
2022/04/17 09:18:11;;;;;;;4.03;2.40;;;;;16.90;97360.00;;;;8252673;28;20778;-72
2022/04/17 09:22:16;;;;;;;4.45;2.70;;;;;17.20;97354.00;;;;8227604;28;20308;-73
2022/04/17 09:26:24;;;;;;;3.17;2.30;;;;;17.40;97348.00;;;;8243417;28;20905;-72
2022/04/17 09:30:29;;;;;;;4.28;2.83;;;;;17.90;97347.00;;;;8252633;28;20235;-71
2022/04/17 09:34:47;;;;;;;3.00;2.53;;;;;18.80;97339.00;;;;8252094;28;20228;-72
2022/04/17 09:38:50;;;;;;;3.25;2.55;;;;;19.00;97332.00;;;;8252330;28;20238;-72
2022/04/17 09:43:11;;;;;;;3.78;2.67;;;;;19.20;97338.00;;;;8244895;28;20333;-71
2022/04/17 09:47:17;;;;;;;3.60;2.30;;;;;19.40;97332.00;;;;8230969;28;20711;-72
2022/04/17 09:51:23;;;;;;;4.32;2.63;;;;;18.70;97333.00;;;;8251734;28;20235;-72
2022/04/17 09:55:28;;;;;;;3.42;2.78;;;;;18.10;97331.00;;;;8252713;28;20230;-72
2022/04/17 09:59:32;;;;;;;3.30;2.50;;;;;17.10;97327.00;;;;8244937;28;20318;-72
2022/04/17 10:03:39;;;;;;;3.60;2.72;;;;;16.90;97327.00;;;;8252274;28;20244;-71
2022/04/17 10:07:47;;;;;;;3.92;2.95;;;;;16.30;97323.00;;;;8251998;28;20308;-72
2022/04/17 10:11:51;;;;;;;5.20;2.72;;;;;16.40;97316.00;;;;8256325;28;20239;-72
2022/04/17 10:15:58;;;;;;;5.80;2.70;;;;;17.30;97305.00;;;;8257998;28;20241;-73
2022/04/17 10:20:05;;;;;;;5.22;2.40;;;;;16.50;97295.00;;;;8257414;28;20233;-72
2022/04/17 10:24:13;;;;;;;4.00;2.55;;;;;16.50;97294.00;;;;8257673;28;20323;-72
2022/04/17 10:28:20;;;;;;;2.42;2.22;;;;;16.70;97290.00;;;;8257805;28;20225;-71
2022/04/17 10:32:53;;;;;;;5.53;2.30;;;;;15.70;97285.00;;;;8250434;28;20247;-71
2022/04/17 10:37:07;;;;;;;3.13;2.58;;;;;15.70;97270.00;;;;8250163;28;20236;-71
2022/04/17 10:41:13;;;;;;;2.60;2.40;;;;;15.90;97275.00;;;;8257220;28;20636;-72
2022/04/17 10:45:16;;;;;;;2.55;2.35;;;;;15.40;97274.00;;;;8280239;28;20312;-71
2022/04/17 10:49:21;;;;;;;3.42;2.70;;;;;15.70;97260.00;;;;8266300;28;20235;-72
2022/04/17 10:53:25;;;;;;;4.35;2.53;;;;;15.60;97263.00;;;;8270993;28;20231;-72
2022/04/17 10:57:29;;;;;;;2.17;2.08;;;;;15.50;97249.00;;;;8268792;28;20223;-72
2022/04/17 11:02:00;;;;;;;3.20;2.50;;;;;15.50;97254.00;;;;8273913;28;20228;-72
2022/04/17 11:06:30;;;;;;;3.80;2.42;;;;;15.80;97256.00;;;;8277911;28;20232;-72
2022/04/17 11:10:43;;;;;;;2.50;2.30;;;;;16.30;97230.00;;;;8265669;28;20292;-71
2022/04/17 11:14:53;;;;;;;3.33;2.38;;;;;17.10;97237.00;;;;8275196;28;20647;-71
2022/04/17 11:18:57;;;;;;;2.63;2.42;;;;;17.30;97210.00;;;;8266212;28;20312;-71
2022/04/17 11:23:01;;;;;;;3.53;2.30;;;;;17.40;97230.00;;;;8273965;28;20221;-72
2022/04/17 11:27:11;;;;;;;3.28;2.25;;;;;17.10;97209.00;;;;8278218;28;20253;-71
2022/04/17 11:31:31;;;;;;;2.58;2.28;;;;;17.10;97204.00;;;;8278279;28;20241;-74
2022/04/17 11:35:35;;;;;;;3.80;2.63;;;;;17.00;97197.00;;;;8275492;28;20225;-74
2022/04/17 11:39:39;;;;;;;4.05;2.80;;;;;17.70;97190.00;;;;8287628;28;20334;-75
2022/04/17 11:44:00;;;;;;;2.95;2.65;;;;;17.10;97195.00;;;;8282431;28;20226;-74
2022/04/17 11:48:10;;;;;;;7.55;3.28;;;;;16.90;97187.00;;;;8294067;28;20232;-74
2022/04/17 11:52:14;;;;;;;4.07;2.75;;;;;16.70;97181.00;;;;8289223;28;20307;-75
2022/04/17 11:56:17;;;;;;;4.72;2.55;;;;;16.30;97180.00;;;;8299112;28;20230;-75
2022/04/17 12:00:20;;;;;;;2.40;2.20;;;;;16.30;97172.00;;;;8295750;28;20380;-76
2022/04/17 12:04:25;;;;;;;2.95;2.45;;;;;16.60;97180.00;;;;8297242;28;20686;-75
2022/04/17 12:08:33;;;;;;;4.68;2.58;;;;;16.20;97169.00;;;;8280866;28;20944;-74
2022/04/17 12:12:38;;;;;;;3.17;2.88;;;;;16.00;97163.00;;;;8285284;28;20248;-78
2022/04/17 12:16:51;;;;;;;5.45;2.80;;;;;16.30;97154.00;;;;8290374;28;20239;-78
2022/04/17 12:21:02;;;;;;;2.72;2.40;;;;;17.00;97141.00;;;;8283441;28;20236;-79
2022/04/17 12:25:16;;;;;;;3.80;2.88;;;;;16.90;97142.00;;;;8293471;28;20694;-76
2022/04/17 12:29:20;;;;;;;2.75;2.50;;;;;17.00;97140.00;;;;8300374;28;20244;-77
2022/04/17 12:33:24;;;;;;;3.40;2.53;;;;;17.00;97144.00;;;;8295131;28;20236;-75
2022/04/17 12:37:31;;;;;;;3.28;2.30;;;;;17.00;97139.00;;;;8299689;28;20260;-74
2022/04/17 12:41:41;;;;;;;3.75;2.90;;;;;16.70;97131.00;;;;8289562;28;20325;-78
2022/04/17 12:45:55;;;;;;;2.83;2.20;;;;;16.60;97129.00;;;;8291174;28;20242;-77
2022/04/17 12:50:05;;;;;;;2.28;2.08;;;;;16.70;97127.00;;;;8296937;28;20233;-77
2022/04/17 12:54:15;;;;;;;4.38;2.72;;;;;17.30;97110.00;;;;8297578;28;20237;-78
2022/04/17 12:58:18;;;;;;;2.60;2.40;;;;;17.90;97121.00;;;;8309021;28;20235;-75
2022/04/17 13:02:25;;;;;;;2.30;2.08;;;;;17.70;97108.00;;;;8275200;28;20234;-72
2022/04/17 13:06:28;;;;;;;2.20;2.10;;;;;17.40;97101.00;;;;8279499;28;20351;-74
2022/04/17 13:10:34;;;;;;;2.50;2.13;;;;;16.80;97104.00;;;;8270895;28;20238;-72
2022/04/17 13:14:56;;;;;;;2.25;2.00;;;;;16.50;97086.00;;;;8273166;28;20228;-73
2022/04/17 13:18:59;;;;;;;2.15;2.00;;;;;16.30;97086.00;;;;8269889;28;20230;-72
2022/04/17 13:23:10;;;;;;;2.33;1.90;;;;;16.40;97083.00;;;;8268779;28;20226;-71
2022/04/17 13:27:18;;;;;;;3.33;2.13;;;;;16.00;97079.00;;;;8273818;28;20233;-71
2022/04/17 13:31:21;;;;;;;2.20;2.10;;;;;15.70;97075.00;;;;8277133;28;20241;-72
2022/04/17 13:35:24;;;;;;;6.35;2.25;;;;;15.60;97064.00;;;;8273705;28;21007;-72
2022/04/17 13:39:27;;;;;;;7.07;2.10;;;;;15.80;97068.00;;;;8273036;28;20316;-71
2022/04/17 13:43:32;;;;;;;2.25;2.10;;;;;16.20;97063.00;;;;8272143;28;20239;-71
2022/04/17 13:47:35;;;;;;;3.45;1.85;;;;;16.70;97059.00;;;;8283121;28;20235;-72
2022/04/17 13:51:39;;;;;;;3.22;1.80;;;;;17.10;97050.00;;;;8291351;28;20238;-71
2022/04/17 13:55:44;;;;;;;2.13;2.00;;;;;17.80;97058.00;;;;8279938;28;20225;-71
2022/04/17 13:59:49;;;;;;;2.20;2.10;;;;;17.90;97039.00;;;;8276972;28;20226;-71
2022/04/17 14:03:52;;;;;;;2.30;1.70;;;;;17.30;97040.00;;;;8287524;28;20685;-71
2022/04/17 14:07:58;;;;;;;2.33;1.88;;;;;17.30;97033.00;;;;8287345;28;20746;-71
2022/04/17 14:12:02;;;;;;;2.53;2.00;;;;;17.30;97030.00;;;;8285600;28;20694;-71
2022/04/17 14:16:07;;;;;;;2.25;1.90;;;;;17.40;97017.00;;;;8285211;28;21076;-71
2022/04/17 14:20:11;;;;;;;5.22;1.98;;;;;17.50;97015.00;;;;8281243;28;20317;-72
2022/04/17 14:24:16;;;;;;;1.92;1.80;;;;;17.60;97002.00;;;;8284649;28;20299;-72
2022/04/17 14:28:20;;;;;;;2.78;1.70;;;;;17.70;97000.00;;;;8297552;28;20226;-72
2022/04/17 14:32:24;;;;;;;2.20;2.10;;;;;17.40;97002.00;;;;8264456;28;20234;-72
2022/04/17 14:36:28;;;;;;;3.40;1.75;;;;;17.50;96990.00;;;;8277472;28;20340;-72
2022/04/17 14:40:31;;;;;;;1.92;1.80;;;;;17.40;96991.00;;;;8284030;28;20232;-72
2022/04/17 14:44:34;;;;;;;2.53;1.70;;;;;17.40;96982.00;;;;8278635;28;20590;-71
2022/04/17 14:48:40;;;;;;;2.03;1.83;;;;;17.40;96978.00;;;;8299977;28;20702;-71
2022/04/17 14:52:43;;;;;;;3.00;2.38;;;;;17.30;96966.00;;;;8282832;28;20241;-71
2022/04/17 14:56:47;;;;;;;3.75;2.03;;;;;17.50;96973.00;;;;8298959;28;20655;-71
2022/04/17 15:00:50;;;;;;;3.33;2.13;;;;;17.50;96973.00;;;;8309340;28;20773;-71
2022/04/17 15:04:55;;;;;;;2.35;2.17;;;;;17.40;96970.00;;;;8300342;28;20606;-71
2022/04/17 15:08:58;;;;;;;2.47;2.10;;;;;17.60;96955.00;;;;8307906;28;20589;-71
2022/04/17 15:13:03;;;;;;;3.47;2.22;;;;;17.80;96953.00;;;;8279860;28;20260;-71
2022/04/17 15:17:06;;;;;;;2.40;2.20;;;;;17.70;96952.00;;;;8287067;28;20232;-71
2022/04/17 15:21:11;;;;;;;2.00;1.80;;;;;17.60;96949.00;;;;8299867;28;20308;-72
2022/04/17 15:25:14;;;;;;;1.85;1.75;;;;;17.80;96943.00;;;;8296038;28;20310;-72
2022/04/17 15:29:18;;;;;;;2.75;2.55;;;;;17.70;96937.00;;;;8301818;28;20236;-72
2022/04/17 15:33:22;;;;;;;3.70;2.60;;;;;17.70;96929.00;;;;8298619;28;20236;-72
2022/04/17 15:37:26;;;;;;;4.30;2.47;;;;;17.50;96922.00;;;;8303567;28;20236;-72
2022/04/17 15:41:29;;;;;;;5.88;2.40;;;;;17.10;96920.00;;;;8304591;28;20316;-71
2022/04/17 15:49:55;;;;;;;4.18;2.47;;;;;17.50;96908.00;;;;8302787;28;20237;-71
2022/04/17 15:53:59;;;;;;;6.68;3.55;;;;;17.80;96910.00;;;;8301738;28;23611;-71
2022/04/17 15:58:07;;;;;;;6.45;3.17;;;;;17.90;96915.00;;;;8299377;28;20226;-71
2022/04/17 16:02:10;;;;;;;9.10;4.57;;;;;18.10;96920.00;;;;8289592;28;20567;-74
2022/04/17 16:06:14;;;;;;;2.13;1.80;;;;;18.20;96910.00;;;;8299843;28;20263;-72
2022/04/17 16:10:19;;;;;;;2.30;1.98;;;;;18.40;96919.00;;;;8299669;28;20236;-72
2022/04/17 16:14:22;;;;;;;3.80;2.22;;;;;18.20;96919.00;;;;8298136;28;20317;-72
2022/04/17 16:18:25;;;;;;;1.95;1.75;;;;;18.20;96920.00;;;;8291524;28;20349;-72
2022/04/17 16:22:29;;;;;;;2.60;2.05;;;;;18.60;96915.00;;;;8303999;28;20591;-72
2022/04/17 16:26:33;;;;;;;3.05;1.90;;;;;18.70;96905.00;;;;8285762;28;20695;-73
2022/04/17 16:30:37;;;;;;;2.97;2.10;;;;;18.80;96909.00;;;;8277024;28;20965;-74
2022/04/17 16:34:40;;;;;;;2.92;1.73;;;;;18.80;96909.00;;;;8292947;28;20993;-75
2022/04/17 16:38:43;;;;;;;3.35;1.90;;;;;18.80;96897.00;;;;8283394;28;20225;-72
2022/04/17 16:42:48;;;;;;;2.47;2.28;;;;;18.10;96904.00;;;;8293410;28;20671;-72
2022/04/17 16:46:51;;;;;;;5.35;2.00;;;;;18.00;96893.00;;;;8283896;28;20228;-72
2022/04/17 16:50:56;;;;;;;1.80;1.70;;;;;18.10;96896.00;;;;8298019;28;20256;-72
2022/04/17 16:54:59;;;;;;;5.00;2.33;;;;;18.10;96900.00;;;;8289453;28;20314;-73
2022/04/17 16:59:12;;;;;;;2.38;2.00;;;;;18.10;96902.00;;;;8283376;28;20316;-72
2022/04/17 17:03:17;;;;;;;4.57;2.15;;;;;17.80;96892.00;;;;8284664;28;20246;-71
2022/04/17 17:07:21;;;;;;;2.38;1.98;;;;;17.30;96895.00;;;;8271596;28;20252;-74
2022/04/17 17:11:24;;;;;;;2.78;2.08;;;;;16.80;96890.00;;;;8285089;28;20252;-73
2022/04/17 17:15:30;;;;;;;2.55;2.00;;;;;15.70;96889.00;;;;8273416;28;20830;-75
2022/04/17 17:19:33;;;;;;;4.78;2.20;;;;;14.90;96889.00;;;;8277917;28;20229;-75
2022/04/17 17:23:37;;;;;;;2.67;2.20;;;;;14.40;96878.00;;;;8280216;28;20230;-76
2022/04/17 17:27:40;;;;;;;3.63;1.92;;;;;13.90;96879.00;;;;8280767;28;20667;-75
2022/04/17 17:31:45;;;;;;;3.28;1.90;;;;;13.50;96874.00;;;;8275365;28;20261;-74
2022/04/17 17:35:48;;;;;;;3.70;2.25;;;;;13.20;96874.00;;;;8278662;28;20225;-75
2022/04/17 17:39:51;;;;;;;6.78;1.98;;;;;13.00;96877.00;;;;8283088;28;20687;-75
2022/04/17 17:43:55;;;;;;;2.20;2.00;;;;;12.80;96871.00;;;;8276180;28;20251;-79
2022/04/17 17:48:02;;;;;;;2.33;2.08;;;;;12.60;96871.00;;;;8287000;28;20236;-80
2022/04/17 17:52:06;;;;;;;3.80;2.10;;;;;12.40;96863.00;;;;8285220;28;20230;-80
2022/04/17 17:56:13;;;;;;;2.13;1.80;;;;;12.10;96871.00;;;;8292452;28;20318;-83
2022/04/17 18:00:18;;;;;;;2.25;2.10;;;;;11.90;96873.00;;;;8285983;28;20408;-81
2022/04/17 18:04:22;;;;;;;7.20;3.80;;;;;11.70;96875.00;;;;8283391;28;20245;-80
2022/04/17 18:17:08;;;;;;;2.75;2.55;;;;;11.20;96871.00;;;;8279905;28;20221;-80
2022/04/17 18:21:14;;;;;;;2.28;1.98;;;;;11.00;96879.00;;;;8282641;28;20217;-79
2022/04/17 18:25:23;;;;;;;2.88;2.47;;;;;10.80;96877.00;;;;8292246;28;20233;-79
2022/04/17 18:29:26;;;;;;;5.07;2.90;;;;;10.50;96871.00;;;;8289720;28;20260;-79
2022/04/17 18:33:30;;;;;;;5.55;3.15;;;;;10.20;96875.00;;;;8281162;28;20236;-79
2022/04/17 18:37:34;;;;;;;10.05;4.93;;;;;9.90;96873.00;;;;8305948;28;20233;-76
2022/04/17 18:41:37;;;;;;;5.83;3.77;;;;;9.70;96878.00;;;;8302584;28;20237;-76
2022/04/17 18:45:41;;;;;;;8.13;3.20;;;;;9.50;96888.00;;;;8297758;28;20228;-81
2022/04/17 18:49:44;;;;;;;2.93;2.60;;;;;9.30;96881.00;;;;8304101;28;20687;-76
2022/04/17 18:53:49;;;;;;;4.23;2.67;;;;;9.10;96887.00;;;;8300784;28;20229;-76
2022/04/17 18:57:52;;;;;;;2.93;2.40;;;;;8.90;96889.00;;;;8283640;28;20236;-79
2022/04/17 19:01:55;;;;;;;2.33;2.10;;;;;8.70;96887.00;;;;8299504;28;20312;-76
2022/04/17 19:05:59;;;;;;;3.47;3.00;;;;;8.40;96883.00;;;;8290735;28;20308;-74
2022/04/17 19:10:04;;;;;;;4.27;2.80;;;;;8.20;96880.00;;;;8284646;28;20221;-74
2022/04/17 19:14:08;;;;;;;3.70;2.63;;;;;8.10;96877.00;;;;8289126;28;20312;-75
2022/04/17 19:18:14;;;;;;;3.20;2.73;;;;;8.00;96872.00;;;;8287422;28;20234;-76
2022/04/17 19:22:17;;;;;;;2.93;2.30;;;;;7.90;96873.00;;;;8291579;28;20225;-77
2022/04/17 19:26:25;;;;;;;6.43;2.90;;;;;7.80;96866.00;;;;8289406;28;20249;-76
2022/04/17 19:30:28;;;;;;;5.83;3.03;;;;;7.80;96868.00;;;;8306813;28;20253;-75
2022/04/17 19:38:57;;;;;;;3.03;2.10;;;;;8.00;96860.00;;;;8303961;28;20232;-75
2022/04/17 19:43:02;;;;;;;3.00;2.13;;;;;8.10;96867.00;;;;8300122;28;20235;-74
2022/04/17 19:47:06;;;;;;;4.70;2.20;;;;;8.10;96856.00;;;;8305800;28;20324;-75
2022/04/17 19:51:09;;;;;;;5.13;3.00;;;;;7.90;96859.00;;;;8303734;28;20265;-74
2022/04/17 19:55:13;;;;;;;4.80;3.10;;;;;7.70;96856.00;;;;8301069;28;20332;-73
2022/04/17 19:59:19;;;;;;;5.77;2.63;;;;;7.60;96850.00;;;;8304655;28;20229;-72
2022/04/17 20:03:23;;;;;;;3.13;2.07;;;;;7.50;96845.00;;;;8306998;28;20467;-72
2022/04/17 20:07:27;;;;;;;2.10;1.90;;;;;7.40;96851.00;;;;8290575;28;20313;-76
2022/04/17 20:11:31;;;;;;;4.57;2.53;;;;;7.20;96844.00;;;;8281581;28;20239;-73
2022/04/17 20:15:35;;;;;;;7.07;4.00;;;;;7.10;96846.00;;;;8295841;28;20311;-73
2022/04/17 20:19:39;;;;;;;5.60;3.33;;;;;7.00;96842.00;;;;8300962;28;20821;-76
2022/04/17 20:23:42;;;;;;;5.33;2.30;;;;;6.80;96839.00;;;;8294343;28;20252;-74
2022/04/17 20:27:46;;;;;;;4.07;2.30;;;;;6.70;96842.00;;;;8285880;28;20673;-75
2022/04/17 20:31:50;;;;;;;3.20;2.20;;;;;6.70;96847.00;;;;8292625;28;20259;-77
2022/04/17 20:35:53;;;;;;;3.87;2.53;;;;;6.70;96842.00;;;;8294361;28;20693;-74
2022/04/17 20:39:58;;;;;;;3.17;2.47;;;;;6.60;96843.00;;;;8306238;28;20315;-73
2022/04/17 20:52:47;;;;;;;4.03;2.37;;;;;6.80;96839.00;;;;8303817;28;20593;-73
2022/04/17 20:56:50;;;;;;;2.30;2.10;;;;;7.00;96831.00;;;;8305363;28;20231;-78
2022/04/17 21:00:53;;;;;;;5.30;2.33;;;;;7.10;96831.00;;;;8304536;28;20241;-78
2022/04/17 21:04:58;;;;;;;3.23;2.10;;;;;7.20;96839.00;;;;8295690;28;20840;-77
2022/04/17 21:09:01;;;;;;;2.73;2.20;;;;;7.30;96832.00;;;;8306952;28;20232;-77
2022/04/17 21:13:06;;;;;;;2.40;2.20;;;;;7.20;96839.00;;;;8295476;28;20254;-77
2022/04/17 21:17:09;;;;;;;3.53;2.30;;;;;7.10;96827.00;;;;8305463;28;21021;-77